Time;durP1;ratioP1;P1;durP2;ratioP2;P2;SDS_P1;SDS_P2;PMS_P1;PMS_P2;Temp;Humidity;BMP_temperature;BMP_pressure;BME280_temperature;BME280_humidity;BME280_pressure;Samples;Min_cycle;Max_cycle;Signal;HPM_P1;HPM_P2
2023/04/30 00:01:14;;;;;;;17.25;9.10;;;;;;;;;;5045622;28;20423;-56
2023/04/30 00:03:41;;;;;;;14.85;9.27;;;;;;;;;;5043320;28;20045;-56
2023/04/30 00:06:07;;;;;;;14.52;7.85;;;;;;;;;;5042518;28;20048;-56
2023/04/30 00:08:33;;;;;;;12.93;8.57;;;;;;;;;;5040684;28;20048;-56
2023/04/30 00:10:59;;;;;;;11.20;7.25;;;;;;;;;;5038439;28;20245;-56
2023/04/30 00:13:25;;;;;;;9.95;6.78;;;;;;;;;;5044253;28;20045;-56
2023/04/30 00:15:51;;;;;;;11.15;6.30;;;;;;;;;;5041672;28;20479;-56
2023/04/30 00:18:17;;;;;;;12.20;6.40;;;;;;;;;;5045665;28;20045;-57
2023/04/30 00:20:43;;;;;;;12.35;7.28;;;;;;;;;;5047338;28;20033;-56
2023/04/30 00:23:10;;;;;;;13.43;8.27;;;;;;;;;;5047637;28;20044;-56
2023/04/30 00:25:36;;;;;;;11.93;8.65;;;;;;;;;;5040371;28;20403;-56
2023/04/30 00:28:02;;;;;;;12.25;8.75;;;;;;;;;;5039751;28;20029;-57
2023/04/30 00:30:28;;;;;;;10.38;7.10;;;;;;;;;;5044741;28;20033;-57
2023/04/30 00:32:54;;;;;;;11.52;6.82;;;;;;;;;;5042321;28;20411;-56
2023/04/30 00:35:20;;;;;;;10.80;7.82;;;;;;;;;;5041819;28;20028;-56
2023/04/30 00:37:46;;;;;;;12.15;7.63;;;;;;;;;;5042581;28;20037;-57
2023/04/30 00:40:13;;;;;;;14.77;7.38;;;;;;;;;;5045223;28;20032;-57
2023/04/30 00:42:39;;;;;;;10.60;6.85;;;;;;;;;;5041741;28;20061;-57
2023/04/30 00:45:06;;;;;;;10.60;6.68;;;;;;;;;;5043383;28;20053;-56
2023/04/30 00:47:33;;;;;;;11.32;7.43;;;;;;;;;;5041450;28;20033;-57
2023/04/30 00:49:59;;;;;;;9.38;6.20;;;;;;;;;;5036565;28;20034;-56
2023/04/30 00:52:26;;;;;;;9.82;6.50;;;;;;;;;;5038183;28;20029;-56
2023/04/30 00:54:53;;;;;;;12.55;7.50;;;;;;;;;;5038351;28;20047;-56
2023/04/30 00:57:19;;;;;;;13.43;6.90;;;;;;;;;;5042269;28;20048;-55
2023/04/30 00:59:46;;;;;;;16.73;8.27;;;;;;;;;;5042674;28;20068;-58
2023/04/30 01:02:12;;;;;;;11.70;7.72;;;;;;;;;;5039866;28;20040;-56
2023/04/30 01:04:38;;;;;;;12.45;7.68;;;;;;;;;;5035897;28;20044;-56
2023/04/30 01:07:05;;;;;;;12.63;8.13;;;;;;;;;;5041320;28;20041;-56
2023/04/30 01:09:31;;;;;;;14.07;7.80;;;;;;;;;;5034734;28;20080;-56
2023/04/30 01:12:33;;;;;;;13.60;7.55;;;;;;;;;;5040242;28;20049;-56
2023/04/30 01:15:17;;;;;;;10.75;7.28;;;;;;;;;;5039248;28;20050;-57
2023/04/30 01:17:52;;;;;;;14.10;7.32;;;;;;;;;;5039187;28;20040;-56
2023/04/30 01:20:18;;;;;;;14.90;8.77;;;;;;;;;;5040177;28;20041;-56
2023/04/30 01:22:47;;;;;;;13.15;7.35;;;;;;;;;;5043950;28;20037;-55
2023/04/30 01:25:29;;;;;;;12.82;7.82;;;;;;;;;;5042055;28;20036;-56
2023/04/30 01:28:15;;;;;;;14.00;7.60;;;;;;;;;;5042440;28;20044;-56
2023/04/30 01:30:45;;;;;;;11.63;6.88;;;;;;;;;;5036393;28;20052;-56
2023/04/30 01:33:11;;;;;;;13.05;7.03;;;;;;;;;;5040086;28;20093;-57
2023/04/30 01:36:15;;;;;;;12.25;6.97;;;;;;;;;;5025115;28;20541;-56
2023/04/30 01:39:18;;;;;;;12.57;6.70;;;;;;;;;;5039484;28;20501;-57
2023/04/30 01:41:59;;;;;;;12.13;6.57;;;;;;;;;;5035577;28;20048;-56
2023/04/30 01:44:57;;;;;;;12.02;6.80;;;;;;;;;;5042642;28;20037;-57
2023/04/30 01:47:53;;;;;;;12.00;6.70;;;;;;;;;;5039718;28;20036;-56
2023/04/30 01:50:42;;;;;;;15.20;6.45;;;;;;;;;;5038968;28;20414;-56
2023/04/30 01:53:18;;;;;;;13.77;6.63;;;;;;;;;;5035499;28;20036;-55
2023/04/30 01:56:00;;;;;;;13.93;6.90;;;;;;;;;;5043984;28;20056;-58
2023/04/30 01:58:27;;;;;;;10.25;6.50;;;;;;;;;;5034884;28;20659;-58
2023/04/30 02:00:53;;;;;;;13.00;7.47;;;;;;;;;;5031161;28;20030;-57
2023/04/30 02:03:20;;;;;;;12.95;7.70;;;;;;;;;;5043291;28;20029;-57
2023/04/30 02:05:47;;;;;;;11.10;7.28;;;;;;;;;;5039482;28;20033;-57
2023/04/30 02:08:13;;;;;;;11.50;7.47;;;;;;;;;;5035283;28;20442;-57
2023/04/30 02:10:39;;;;;;;11.20;7.40;;;;;;;;;;5038710;28;20483;-57
2023/04/30 02:13:06;;;;;;;13.98;7.10;;;;;;;;;;5042864;28;20029;-58
2023/04/30 02:15:32;;;;;;;11.70;6.15;;;;;;;;;;5040721;28;20056;-57
2023/04/30 02:17:58;;;;;;;9.65;6.38;;;;;;;;;;5039222;28;20469;-58
2023/04/30 02:20:24;;;;;;;11.35;6.43;;;;;;;;;;5044101;28;20045;-57
2023/04/30 02:22:51;;;;;;;10.50;6.55;;;;;;;;;;5046382;28;20040;-58
2023/04/30 02:25:17;;;;;;;7.65;5.43;;;;;;;;;;5057283;28;20643;-56
2023/04/30 02:27:44;;;;;;;8.55;6.20;;;;;;;;;;5036404;28;20039;-56
2023/04/30 02:30:10;;;;;;;10.57;6.38;;;;;;;;;;5038584;28;20049;-56
2023/04/30 02:32:36;;;;;;;10.18;6.43;;;;;;;;;;5038952;28;20033;-56
2023/04/30 02:35:03;;;;;;;11.73;6.22;;;;;;;;;;5039212;28;20399;-57
2023/04/30 02:37:29;;;;;;;9.80;6.05;;;;;;;;;;5048070;28;20045;-56
2023/04/30 02:39:56;;;;;;;11.95;6.57;;;;;;;;;;5043864;28;20052;-57
2023/04/30 02:42:22;;;;;;;12.52;6.38;;;;;;;;;;5043647;28;20411;-56
2023/04/30 02:44:48;;;;;;;10.00;6.30;;;;;;;;;;5037606;28;20511;-56
2023/04/30 02:47:14;;;;;;;11.60;5.90;;;;;;;;;;5042053;28;20036;-56
2023/04/30 02:49:40;;;;;;;10.13;6.90;;;;;;;;;;5042017;28;20044;-56
2023/04/30 02:52:08;;;;;;;11.18;6.57;;;;;;;;;;5037204;28;20068;-56
2023/04/30 02:54:34;;;;;;;11.38;6.70;;;;;;;;;;5014063;28;20041;-56
2023/04/30 02:57:00;;;;;;;11.10;6.50;;;;;;;;;;5039986;28;20037;-56
2023/04/30 02:59:27;;;;;;;9.57;6.18;;;;;;;;;;5040083;28;20040;-56
2023/04/30 03:01:53;;;;;;;8.35;5.82;;;;;;;;;;5038132;28;20483;-56
2023/04/30 03:04:20;;;;;;;10.23;6.30;;;;;;;;;;5036786;28;20395;-56
2023/04/30 03:06:46;;;;;;;9.95;6.40;;;;;;;;;;5038637;28;20044;-57
2023/04/30 03:09:12;;;;;;;9.98;6.72;;;;;;;;;;5039736;28;20033;-56
2023/04/30 03:11:38;;;;;;;11.20;6.25;;;;;;;;;;5040470;28;20047;-56
2023/04/30 03:14:04;;;;;;;13.05;6.13;;;;;;;;;;5039933;28;20055;-56
2023/04/30 03:16:31;;;;;;;9.32;6.55;;;;;;;;;;5041240;28;20036;-56
2023/04/30 03:18:57;;;;;;;10.05;6.53;;;;;;;;;;5044946;28;20039;-56
2023/04/30 03:21:23;;;;;;;9.10;6.15;;;;;;;;;;5033821;28;20047;-56
2023/04/30 03:23:49;;;;;;;10.18;6.28;;;;;;;;;;5036425;28;20055;-55
2023/04/30 03:26:16;;;;;;;11.20;6.13;;;;;;;;;;5037529;28;20041;-56
2023/04/30 03:28:42;;;;;;;11.10;6.30;;;;;;;;;;5037636;28;20041;-56
2023/04/30 03:31:08;;;;;;;12.07;6.55;;;;;;;;;;5043205;28;20061;-56
2023/04/30 03:33:35;;;;;;;11.63;5.80;;;;;;;;;;5035963;28;20050;-56
2023/04/30 03:36:01;;;;;;;11.05;6.15;;;;;;;;;;5037241;28;20056;-56
2023/04/30 03:38:27;;;;;;;11.27;6.60;;;;;;;;;;5043589;28;20032;-56
2023/04/30 03:40:53;;;;;;;9.82;6.43;;;;;;;;;;5038585;28;20048;-56
2023/04/30 03:43:20;;;;;;;10.18;6.35;;;;;;;;;;5040194;28;20044;-56
2023/04/30 03:45:47;;;;;;;13.55;6.05;;;;;;;;;;5036519;28;20820;-56
2023/04/30 03:48:13;;;;;;;11.55;6.00;;;;;;;;;;5044553;28;20045;-55
2023/04/30 03:50:39;;;;;;;8.55;5.88;;;;;;;;;;5041599;28;20037;-56
2023/04/30 03:53:05;;;;;;;10.68;6.00;;;;;;;;;;5042559;28;20044;-56
2023/04/30 03:55:32;;;;;;;8.82;5.35;;;;;;;;;;5038585;28;20030;-56
2023/04/30 03:57:59;;;;;;;8.48;5.53;;;;;;;;;;5038200;28;20047;-57
2023/04/30 04:00:25;;;;;;;9.77;5.78;;;;;;;;;;5034275;28;20070;-56
2023/04/30 04:02:53;;;;;;;9.73;5.35;;;;;;;;;;5038292;28;20045;-56
2023/04/30 04:05:19;;;;;;;13.35;6.30;;;;;;;;;;5036869;28;20041;-57
2023/04/30 04:07:46;;;;;;;9.35;5.63;;;;;;;;;;5035414;28;20582;-56
2023/04/30 04:10:12;;;;;;;9.20;5.45;;;;;;;;;;5020590;28;20042;-56
2023/04/30 04:12:39;;;;;;;9.82;5.82;;;;;;;;;;5038812;28;20553;-54
2023/04/30 04:15:05;;;;;;;13.35;5.32;;;;;;;;;;5033549;28;20055;-56
2023/04/30 04:17:32;;;;;;;8.13;5.10;;;;;;;;;;5037725;28;20036;-56
2023/04/30 04:19:58;;;;;;;7.68;4.78;;;;;;;;;;5043509;28;20044;-56
2023/04/30 04:22:25;;;;;;;10.80;5.82;;;;;;;;;;5045522;28;20041;-56
2023/04/30 04:24:51;;;;;;;14.07;6.97;;;;;;;;;;5040674;28;20033;-56
2023/04/30 04:27:20;;;;;;;11.77;6.20;;;;;;;;;;5044428;28;20040;-56
2023/04/30 04:29:47;;;;;;;12.30;5.88;;;;;;;;;;5038835;28;20045;-56
2023/04/30 04:32:13;;;;;;;9.30;5.57;;;;;;;;;;5040276;28;20057;-56
2023/04/30 04:34:42;;;;;;;9.95;5.35;;;;;;;;;;5035718;28;20033;-56
2023/04/30 04:37:08;;;;;;;10.30;5.03;;;;;;;;;;5036212;28;20041;-56
2023/04/30 04:39:36;;;;;;;8.15;5.15;;;;;;;;;;5043373;28;20044;-55
2023/04/30 04:42:03;;;;;;;8.60;5.63;;;;;;;;;;5036118;28;20407;-56
2023/04/30 04:44:30;;;;;;;10.60;5.60;;;;;;;;;;5034019;28;20539;-56
2023/04/30 04:46:56;;;;;;;9.23;5.68;;;;;;;;;;5045091;28;20443;-56
2023/04/30 04:49:23;;;;;;;10.52;5.65;;;;;;;;;;5041401;28;20040;-56
2023/04/30 04:51:51;;;;;;;10.80;5.97;;;;;;;;;;5020974;28;20040;-56
2023/04/30 04:54:17;;;;;;;12.07;5.85;;;;;;;;;;5046582;28;20031;-56
2023/04/30 04:56:43;;;;;;;11.02;6.10;;;;;;;;;;5042292;28;20040;-56
2023/04/30 04:59:09;;;;;;;8.68;5.65;;;;;;;;;;5039159;28;20491;-56
2023/04/30 05:01:35;;;;;;;12.18;6.10;;;;;;;;;;5038622;28;20410;-55
2023/04/30 05:04:02;;;;;;;10.38;6.55;;;;;;;;;;5044476;28;20049;-56
2023/04/30 05:06:28;;;;;;;11.30;6.22;;;;;;;;;;5040256;28;20036;-56
2023/04/30 05:08:54;;;;;;;9.52;5.68;;;;;;;;;;5044728;28;20021;-56
2023/04/30 05:11:21;;;;;;;10.35;5.68;;;;;;;;;;5041638;28;20033;-56
2023/04/30 05:13:47;;;;;;;8.95;5.80;;;;;;;;;;5042746;28;20032;-56
2023/04/30 05:16:13;;;;;;;9.57;6.13;;;;;;;;;;5043940;28;20510;-56
2023/04/30 05:18:40;;;;;;;13.20;7.22;;;;;;;;;;5047093;28;20049;-56
2023/04/30 05:21:06;;;;;;;11.43;6.32;;;;;;;;;;5039350;28;20040;-55
2023/04/30 05:23:32;;;;;;;11.20;6.00;;;;;;;;;;5038224;28;20398;-57
2023/04/30 05:25:58;;;;;;;12.95;9.93;;;;;;;;;;5040700;28;20029;-57
2023/04/30 05:28:24;;;;;;;13.23;11.07;;;;;;;;;;5043219;28;20415;-56
2023/04/30 05:30:50;;;;;;;16.80;10.80;;;;;;;;;;5045741;28;20496;-56
2023/04/30 05:33:16;;;;;;;14.55;10.98;;;;;;;;;;5033245;28;20025;-56
2023/04/30 05:35:43;;;;;;;15.48;10.73;;;;;;;;;;5041651;28;20044;-57
2023/04/30 05:38:09;;;;;;;16.73;12.73;;;;;;;;;;5037960;28;20057;-56
2023/04/30 05:40:35;;;;;;;14.60;11.02;;;;;;;;;;5044517;28;20037;-57
2023/04/30 05:43:01;;;;;;;16.60;10.75;;;;;;;;;;5037551;28;20483;-55
2023/04/30 05:45:27;;;;;;;10.82;6.32;;;;;;;;;;5039374;28;20380;-56
2023/04/30 05:47:53;;;;;;;13.98;7.18;;;;;;;;;;5040418;28;20032;-57
2023/04/30 05:50:20;;;;;;;11.65;6.75;;;;;;;;;;5041566;28;20048;-56
2023/04/30 05:52:46;;;;;;;12.73;7.13;;;;;;;;;;5040079;28;20388;-57
2023/04/30 05:55:12;;;;;;;17.08;10.82;;;;;;;;;;5037913;28;20049;-56
2023/04/30 05:57:38;;;;;;;11.82;7.07;;;;;;;;;;5037821;28;20037;-56
2023/04/30 06:00:05;;;;;;;11.77;6.90;;;;;;;;;;5034361;28;20403;-56
2023/04/30 06:02:38;;;;;;;13.85;7.32;;;;;;;;;;5040091;28;20033;-56
2023/04/30 06:05:06;;;;;;;12.48;6.97;;;;;;;;;;5034939;28;20045;-56
2023/04/30 06:07:32;;;;;;;13.38;7.45;;;;;;;;;;5034307;28;20034;-56
2023/04/30 06:09:59;;;;;;;14.23;8.02;;;;;;;;;;5043520;28;20032;-56
2023/04/30 06:12:25;;;;;;;12.45;7.13;;;;;;;;;;5038177;28;20033;-56
2023/04/30 06:14:51;;;;;;;13.95;7.75;;;;;;;;;;5036776;28;20042;-56
2023/04/30 06:17:18;;;;;;;17.38;9.25;;;;;;;;;;5037785;28;20041;-55
2023/04/30 06:19:44;;;;;;;17.27;9.68;;;;;;;;;;5040214;28;20041;-57
2023/04/30 06:22:10;;;;;;;21.13;11.15;;;;;;;;;;5042378;28;20041;-56
2023/04/30 06:24:36;;;;;;;18.10;10.02;;;;;;;;;;5040544;28;20032;-56
2023/04/30 06:27:03;;;;;;;23.58;11.85;;;;;;;;;;5038436;28;20029;-57
2023/04/30 06:29:29;;;;;;;21.60;11.10;;;;;;;;;;5037145;28;20422;-57
2023/04/30 06:31:55;;;;;;;21.75;11.60;;;;;;;;;;5043110;28;20048;-57
2023/04/30 06:34:21;;;;;;;22.52;12.23;;;;;;;;;;5039666;28;20033;-57
2023/04/30 06:36:48;;;;;;;20.80;11.55;;;;;;;;;;5037160;28;20033;-57
2023/04/30 06:39:15;;;;;;;22.58;12.18;;;;;;;;;;5039894;28;20040;-57
2023/04/30 06:41:41;;;;;;;19.85;11.45;;;;;;;;;;5036057;28;20045;-57
2023/04/30 06:44:09;;;;;;;17.10;9.93;;;;;;;;;;5039354;28;20049;-57
2023/04/30 06:46:35;;;;;;;17.00;9.27;;;;;;;;;;5037662;28;20042;-57
2023/04/30 06:49:02;;;;;;;19.55;10.55;;;;;;;;;;5037289;28;20056;-57
2023/04/30 06:51:28;;;;;;;17.42;9.77;;;;;;;;;;5040799;28;20034;-56
2023/04/30 06:53:54;;;;;;;16.38;9.75;;;;;;;;;;5046834;28;20059;-56
2023/04/30 06:56:21;;;;;;;17.25;9.40;;;;;;;;;;5041487;28;20036;-57
2023/04/30 06:58:49;;;;;;;15.20;9.77;;;;;;;;;;5039290;28;20036;-56
2023/04/30 07:01:16;;;;;;;13.75;8.70;;;;;;;;;;5042003;28;20486;-57
2023/04/30 07:03:42;;;;;;;15.65;9.52;;;;;;;;;;5038328;28;20045;-57
2023/04/30 07:06:08;;;;;;;19.70;9.50;;;;;;;;;;5038381;28;20430;-56
2023/04/30 07:08:34;;;;;;;15.82;9.20;;;;;;;;;;5035259;28;20048;-56
2023/04/30 07:11:01;;;;;;;14.48;9.05;;;;;;;;;;5038073;28;20056;-56
2023/04/30 07:13:27;;;;;;;15.43;9.38;;;;;;;;;;5043356;28;20506;-56
2023/04/30 07:15:53;;;;;;;14.88;8.45;;;;;;;;;;5044179;28;20053;-57
2023/04/30 07:18:20;;;;;;;17.00;9.15;;;;;;;;;;5041062;28;20041;-59
2023/04/30 07:20:46;;;;;;;14.43;8.38;;;;;;;;;;5043202;28;20040;-58
2023/04/30 07:23:12;;;;;;;13.02;8.07;;;;;;;;;;5043543;28;20030;-58
2023/04/30 07:25:38;;;;;;;14.57;8.00;;;;;;;;;;5048249;28;20033;-55
2023/04/30 07:28:04;;;;;;;13.30;7.50;;;;;;;;;;5040263;28;20423;-59
2023/04/30 07:30:30;;;;;;;13.32;8.18;;;;;;;;;;5035095;28;20045;-56
2023/04/30 07:32:57;;;;;;;14.13;7.75;;;;;;;;;;5035762;28;20045;-57
2023/04/30 07:35:23;;;;;;;11.73;7.50;;;;;;;;;;5039447;28;20037;-56
2023/04/30 07:37:49;;;;;;;14.32;8.27;;;;;;;;;;5038841;28;20049;-56
2023/04/30 07:40:15;;;;;;;11.13;7.15;;;;;;;;;;5036597;28;20048;-57
2023/04/30 07:42:41;;;;;;;11.85;7.30;;;;;;;;;;5037070;28;20044;-57
2023/04/30 07:45:08;;;;;;;12.00;7.38;;;;;;;;;;5041190;28;20057;-57
2023/04/30 07:47:34;;;;;;;12.15;7.93;;;;;;;;;;5037608;28;20036;-59
2023/04/30 07:50:00;;;;;;;13.13;8.13;;;;;;;;;;5037839;28;20056;-58
2023/04/30 07:52:27;;;;;;;10.30;7.43;;;;;;;;;;5038369;28;20055;-59
2023/04/30 07:54:53;;;;;;;14.52;7.57;;;;;;;;;;5037453;28;20029;-57
2023/04/30 07:57:19;;;;;;;13.18;7.78;;;;;;;;;;5036455;28;20064;-58
2023/04/30 07:59:45;;;;;;;11.45;7.72;;;;;;;;;;5033500;28;20057;-57
2023/04/30 08:02:12;;;;;;;10.27;7.25;;;;;;;;;;5041655;28;20035;-57
2023/04/30 08:04:38;;;;;;;12.05;7.82;;;;;;;;;;5036877;28;20052;-57
2023/04/30 08:07:04;;;;;;;12.35;7.93;;;;;;;;;;5037465;28;20053;-58
2023/04/30 08:09:30;;;;;;;12.25;7.40;;;;;;;;;;5038885;28;20037;-58
2023/04/30 08:11:56;;;;;;;10.75;7.70;;;;;;;;;;5043655;28;20033;-57
2023/04/30 08:14:23;;;;;;;10.55;7.38;;;;;;;;;;5043265;28;20032;-56
2023/04/30 08:16:49;;;;;;;9.77;6.88;;;;;;;;;;5046690;28;20051;-57
2023/04/30 08:19:15;;;;;;;10.25;6.55;;;;;;;;;;5044662;28;20044;-58
2023/04/30 08:21:41;;;;;;;9.13;6.10;;;;;;;;;;5037151;28;20045;-57
2023/04/30 08:24:07;;;;;;;8.30;5.82;;;;;;;;;;5038463;28;20053;-58
2023/04/30 08:26:33;;;;;;;11.15;5.97;;;;;;;;;;5046893;28;20041;-58
2023/04/30 08:29:00;;;;;;;8.07;5.50;;;;;;;;;;5047309;28;20063;-57
2023/04/30 08:31:26;;;;;;;8.38;5.72;;;;;;;;;;5046117;28;20036;-57
2023/04/30 08:33:52;;;;;;;7.50;5.65;;;;;;;;;;5043078;28;20034;-59
2023/04/30 08:36:18;;;;;;;8.00;5.35;;;;;;;;;;5037299;28;20503;-58
2023/04/30 08:38:44;;;;;;;9.75;5.20;;;;;;;;;;5041590;28;20047;-57
2023/04/30 08:41:12;;;;;;;6.80;5.47;;;;;;;;;;5035965;28;20041;-59
2023/04/30 08:43:43;;;;;;;7.35;4.70;;;;;;;;;;5042296;28;20048;-59
2023/04/30 08:46:12;;;;;;;6.70;5.05;;;;;;;;;;5043131;28;20028;-59
2023/04/30 08:48:39;;;;;;;6.50;4.75;;;;;;;;;;5033974;28;20053;-59
2023/04/30 08:51:06;;;;;;;5.43;4.40;;;;;;;;;;5043349;28;20033;-59
2023/04/30 08:53:38;;;;;;;7.68;5.03;;;;;;;;;;5040995;28;20037;-59
2023/04/30 08:56:05;;;;;;;7.82;5.50;;;;;;;;;;5039386;28;20037;-60
2023/04/30 08:58:31;;;;;;;7.70;5.60;;;;;;;;;;5039159;28;20048;-59
2023/04/30 09:00:58;;;;;;;7.72;5.28;;;;;;;;;;5037550;28;20048;-58
2023/04/30 09:03:25;;;;;;;7.20;5.10;;;;;;;;;;5046047;28;20044;-58
2023/04/30 09:05:51;;;;;;;5.90;4.47;;;;;;;;;;5043826;28;20045;-58
2023/04/30 09:08:19;;;;;;;6.85;4.20;;;;;;;;;;5034726;28;20044;-59
2023/04/30 09:10:45;;;;;;;6.40;4.38;;;;;;;;;;5041230;28;20036;-58
2023/04/30 09:13:12;;;;;;;6.30;4.70;;;;;;;;;;5040159;28;20041;-58
2023/04/30 09:15:40;;;;;;;6.75;4.35;;;;;;;;;;5035591;28;20033;-59
2023/04/30 09:18:16;;;;;;;6.72;4.53;;;;;;;;;;5037391;28;20561;-58
2023/04/30 09:21:04;;;;;;;7.60;5.53;;;;;;;;;;5035531;28;20037;-59
2023/04/30 09:23:30;;;;;;;7.25;5.60;;;;;;;;;;5039934;28;20481;-58
2023/04/30 09:25:56;;;;;;;6.55;5.28;;;;;;;;;;5045146;28;20398;-58
2023/04/30 09:28:25;;;;;;;6.10;5.10;;;;;;;;;;5043152;28;20490;-58
2023/04/30 09:30:52;;;;;;;8.32;5.70;;;;;;;;;;5038509;28;20053;-58
2023/04/30 09:33:19;;;;;;;8.15;5.90;;;;;;;;;;5034122;28;20040;-59
2023/04/30 09:35:45;;;;;;;7.50;5.72;;;;;;;;;;5038984;28;20063;-58
2023/04/30 09:38:25;;;;;;;7.00;5.22;;;;;;;;;;5039171;28;20519;-59
2023/04/30 09:40:52;;;;;;;7.05;5.43;;;;;;;;;;5041885;28;20060;-59
2023/04/30 09:43:18;;;;;;;6.30;5.13;;;;;;;;;;5041564;28;20431;-59
2023/04/30 09:45:47;;;;;;;8.25;5.50;;;;;;;;;;5041979;28;20040;-59
2023/04/30 09:48:19;;;;;;;6.68;5.20;;;;;;;;;;5045747;28;20033;-59
2023/04/30 09:50:46;;;;;;;6.60;5.18;;;;;;;;;;5045389;28;20512;-59
2023/04/30 09:53:13;;;;;;;15.98;4.28;;;;;;;;;;5037336;28;20041;-59
2023/04/30 09:55:47;;;;;;;16.83;4.55;;;;;;;;;;5043270;28;20036;-59
2023/04/30 09:58:15;;;;;;;15.95;4.13;;;;;;;;;;5035997;28;20049;-58
2023/04/30 10:00:43;;;;;;;6.10;4.32;;;;;;;;;;5038715;28;20045;-57
2023/04/30 10:03:11;;;;;;;8.13;4.95;;;;;;;;;;5039416;28;20056;-58
2023/04/30 10:05:43;;;;;;;8.77;5.20;;;;;;;;;;5038934;28;20045;-60
2023/04/30 10:08:24;;;;;;;7.93;5.20;;;;;;;;;;5040099;28;20040;-60
2023/04/30 10:11:01;;;;;;;6.15;4.22;;;;;;;;;;5040216;28;20383;-58
2023/04/30 10:13:30;;;;;;;5.00;4.47;;;;;;;;;;5042806;28;20041;-58
2023/04/30 10:16:06;;;;;;;7.93;4.63;;;;;;;;;;5044615;28;20036;-58
2023/04/30 10:18:39;;;;;;;5.82;4.07;;;;;;;;;;5042780;28;20405;-59
2023/04/30 10:21:11;;;;;;;7.47;4.50;;;;;;;;;;5038493;28;20033;-59
2023/04/30 10:23:42;;;;;;;9.48;4.25;;;;;;;;;;5039060;28;20040;-58
2023/04/30 10:26:12;;;;;;;4.82;4.32;;;;;;;;;;5040576;28;20398;-58
2023/04/30 10:28:39;;;;;;;6.53;4.30;;;;;;;;;;5037996;28;20386;-58
2023/04/30 10:31:07;;;;;;;5.45;4.05;;;;;;;;;;5042110;28;20041;-58
2023/04/30 10:33:55;;;;;;;4.68;3.78;;;;;;;;;;5038915;28;20053;-58
2023/04/30 10:36:50;;;;;;;4.80;4.00;;;;;;;;;;5039878;28;20025;-59
2023/04/30 10:39:21;;;;;;;6.38;3.80;;;;;;;;;;5041855;28;20041;-60
2023/04/30 10:41:48;;;;;;;5.55;4.28;;;;;;;;;;5038219;28;20045;-59
2023/04/30 10:44:20;;;;;;;5.03;3.80;;;;;;;;;;5045358;28;20048;-58
2023/04/30 10:46:47;;;;;;;5.53;4.03;;;;;;;;;;5025106;28;20033;-58
2023/04/30 10:49:14;;;;;;;5.30;4.30;;;;;;;;;;5044270;28;20506;-59
2023/04/30 10:51:45;;;;;;;5.38;4.00;;;;;;;;;;5032271;28;20037;-59
2023/04/30 10:54:21;;;;;;;4.60;3.90;;;;;;;;;;5035103;28;20033;-59
2023/04/30 10:56:50;;;;;;;5.72;4.30;;;;;;;;;;5040611;28;20044;-59
2023/04/30 10:59:16;;;;;;;5.07;4.25;;;;;;;;;;5037678;28;20034;-59
2023/04/30 11:01:59;;;;;;;6.95;4.80;;;;;;;;;;5038666;28;20407;-58
2023/04/30 11:04:25;;;;;;;6.05;4.57;;;;;;;;;;5047619;28;20048;-58
2023/04/30 11:06:52;;;;;;;7.82;4.80;;;;;;;;;;5036560;28;20044;-58
2023/04/30 11:09:42;;;;;;;5.57;4.80;;;;;;;;;;5037912;28;20487;-58
2023/04/30 11:12:14;;;;;;;6.63;4.70;;;;;;;;;;5043723;28;20411;-57
2023/04/30 11:14:44;;;;;;;7.80;4.95;;;;;;;;;;5035611;28;20033;-58
2023/04/30 11:17:21;;;;;;;6.35;4.47;;;;;;;;;;5040489;28;20037;-59
2023/04/30 11:19:52;;;;;;;6.22;5.00;;;;;;;;;;5037228;28;20033;-59
2023/04/30 11:22:22;;;;;;;6.18;4.97;;;;;;;;;;5043547;28;20037;-58
2023/04/30 11:24:57;;;;;;;6.60;4.38;;;;;;;;;;5037007;28;20037;-58
2023/04/30 11:27:25;;;;;;;6.65;4.93;;;;;;;;;;5040788;28;20033;-58
2023/04/30 11:29:52;;;;;;;6.35;4.68;;;;;;;;;;5041636;28;20055;-58
2023/04/30 11:32:20;;;;;;;8.20;3.95;;;;;;;;;;5037928;28;20056;-58
2023/04/30 11:34:46;;;;;;;5.47;4.22;;;;;;;;;;5041888;28;20411;-59
2023/04/30 11:37:18;;;;;;;7.25;5.05;;;;;;;;;;5038516;28;20036;-59
2023/04/30 11:39:46;;;;;;;8.05;4.72;;;;;;;;;;5033160;28;20415;-58
2023/04/30 11:42:19;;;;;;;5.03;4.53;;;;;;;;;;5042963;28;20052;-58
2023/04/30 11:44:46;;;;;;;6.35;4.85;;;;;;;;;;5040828;28;20061;-60
2023/04/30 11:47:14;;;;;;;4.85;4.35;;;;;;;;;;5043253;28;20053;-59
2023/04/30 11:49:41;;;;;;;7.18;4.63;;;;;;;;;;5041495;28;20044;-60
2023/04/30 11:52:08;;;;;;;7.20;4.40;;;;;;;;;;5037929;28;20053;-59
2023/04/30 11:54:37;;;;;;;5.97;4.05;;;;;;;;;;5045319;28;20025;-59
2023/04/30 11:57:03;;;;;;;5.13;3.97;;;;;;;;;;5050744;28;20402;-58
2023/04/30 11:59:30;;;;;;;5.32;4.30;;;;;;;;;;5043726;28;20048;-59
2023/04/30 12:01:57;;;;;;;4.43;3.78;;;;;;;;;;5049203;28;20423;-59
2023/04/30 12:04:23;;;;;;;5.45;4.07;;;;;;;;;;5043959;28;20040;-59
2023/04/30 12:06:50;;;;;;;13.38;5.70;;;;;;;;;;5041197;28;20033;-59
2023/04/30 12:09:16;;;;;;;12.98;5.68;;;;;;;;;;5039254;28;20040;-59
2023/04/30 12:11:42;;;;;;;6.20;4.32;;;;;;;;;;5046370;28;20049;-59
2023/04/30 12:14:09;;;;;;;10.05;4.65;;;;;;;;;;5041044;28;20048;-60
2023/04/30 12:16:44;;;;;;;9.13;4.65;;;;;;;;;;5025787;28;20033;-61
2023/04/30 12:19:11;;;;;;;5.97;3.95;;;;;;;;;;5044315;28;20519;-60
2023/04/30 12:21:40;;;;;;;13.60;4.53;;;;;;;;;;5041253;28;20044;-58
2023/04/30 12:24:07;;;;;;;7.60;4.60;;;;;;;;;;5047951;28;20418;-59
2023/04/30 12:26:35;;;;;;;4.43;3.63;;;;;;;;;;5048021;28;20037;-58
2023/04/30 12:29:03;;;;;;;5.10;4.00;;;;;;;;;;5045072;28;20049;-58
2023/04/30 12:31:32;;;;;;;4.38;3.70;;;;;;;;;;5039993;28;20047;-59
2023/04/30 12:34:05;;;;;;;4.60;3.67;;;;;;;;;;5042587;28;20053;-59
2023/04/30 12:36:32;;;;;;;4.88;3.58;;;;;;;;;;5040557;28;20522;-59
2023/04/30 12:39:06;;;;;;;5.60;3.70;;;;;;;;;;5045351;28;20699;-58
2023/04/30 12:41:42;;;;;;;4.25;3.65;;;;;;;;;;5043576;28;20029;-59
2023/04/30 12:44:25;;;;;;;4.70;3.83;;;;;;;;;;5047453;28;20041;-58
2023/04/30 12:46:55;;;;;;;4.57;3.75;;;;;;;;;;5040689;28;20036;-59
2023/04/30 12:49:33;;;;;;;4.78;4.20;;;;;;;;;;5037258;28;20041;-58
2023/04/30 12:52:10;;;;;;;4.72;3.88;;;;;;;;;;5049505;28;20059;-59
2023/04/30 12:54:37;;;;;;;4.30;3.65;;;;;;;;;;5037144;28;20040;-59
2023/04/30 12:57:08;;;;;;;6.38;4.63;;;;;;;;;;5037907;28;20045;-58
2023/04/30 12:59:39;;;;;;;7.15;5.07;;;;;;;;;;5040331;28;20379;-59
2023/04/30 13:02:12;;;;;;;9.48;5.40;;;;;;;;;;5047362;28;20052;-59
2023/04/30 13:04:40;;;;;;;6.45;4.60;;;;;;;;;;5027628;28;20514;-59
2023/04/30 13:07:06;;;;;;;6.05;4.40;;;;;;;;;;5037580;28;20038;-59
2023/04/30 13:09:34;;;;;;;6.43;4.85;;;;;;;;;;5041377;28;20053;-60
2023/04/30 13:12:01;;;;;;;5.50;4.30;;;;;;;;;;5039765;28;20049;-58
2023/04/30 13:14:27;;;;;;;6.38;4.50;;;;;;;;;;5044244;28;20037;-58
2023/04/30 13:16:54;;;;;;;7.63;4.85;;;;;;;;;;5037871;28;20056;-58
2023/04/30 13:19:20;;;;;;;5.63;4.30;;;;;;;;;;5038695;28;20041;-58
2023/04/30 13:21:46;;;;;;;5.30;3.92;;;;;;;;;;5042014;28;20056;-59
2023/04/30 13:24:13;;;;;;;5.15;4.50;;;;;;;;;;5037493;28;20044;-59
2023/04/30 13:26:39;;;;;;;5.18;4.07;;;;;;;;;;5040283;28;20029;-59
2023/04/30 13:29:06;;;;;;;5.53;4.22;;;;;;;;;;5037778;28;20112;-59
2023/04/30 13:31:32;;;;;;;6.03;4.03;;;;;;;;;;5044080;28;20040;-60
2023/04/30 13:33:58;;;;;;;4.85;3.90;;;;;;;;;;5042184;28;20030;-60
2023/04/30 13:36:24;;;;;;;5.75;4.45;;;;;;;;;;5042710;28;20029;-59
2023/04/30 13:38:50;;;;;;;4.78;3.75;;;;;;;;;;5040435;28;20460;-59
2023/04/30 13:41:17;;;;;;;6.35;4.00;;;;;;;;;;5042988;28;20498;-58
2023/04/30 13:43:45;;;;;;;6.63;4.10;;;;;;;;;;5040053;28;20083;-58
2023/04/30 13:46:11;;;;;;;4.72;4.10;;;;;;;;;;5034963;28;20041;-58
2023/04/30 13:48:37;;;;;;;4.88;3.97;;;;;;;;;;5034629;28;20041;-59
2023/04/30 13:51:04;;;;;;;4.40;4.00;;;;;;;;;;5038823;28;20049;-60
2023/04/30 13:53:30;;;;;;;5.15;4.40;;;;;;;;;;5043614;28;20025;-60
2023/04/30 13:55:58;;;;;;;6.55;4.88;;;;;;;;;;5040962;28;20419;-59
2023/04/30 13:58:25;;;;;;;9.95;6.65;;;;;;;;;;5039670;28;20032;-59
2023/04/30 14:00:51;;;;;;;5.97;4.32;;;;;;;;;;5043622;28;20037;-59
2023/04/30 14:03:18;;;;;;;5.13;4.20;;;;;;;;;;5038712;28;20041;-59
2023/04/30 14:05:45;;;;;;;4.03;3.63;;;;;;;;;;5036584;28;20028;-58
2023/04/30 14:08:11;;;;;;;4.50;4.10;;;;;;;;;;5042660;28;20494;-59
2023/04/30 14:10:37;;;;;;;4.55;4.07;;;;;;;;;;5039223;28;20056;-60
2023/04/30 14:13:03;;;;;;;4.65;3.70;;;;;;;;;;5044478;28;20406;-60
2023/04/30 14:15:31;;;;;;;5.95;4.13;;;;;;;;;;5039842;28;20411;-59
2023/04/30 14:17:59;;;;;;;5.38;4.18;;;;;;;;;;5036871;28;20033;-60
2023/04/30 14:20:25;;;;;;;4.07;3.67;;;;;;;;;;5041237;28;20037;-60
2023/04/30 14:22:51;;;;;;;4.50;4.10;;;;;;;;;;5038595;28;20044;-59
2023/04/30 14:25:18;;;;;;;4.97;4.40;;;;;;;;;;5037992;28;20067;-60
2023/04/30 14:27:46;;;;;;;5.90;4.18;;;;;;;;;;5044112;28;20418;-59
2023/04/30 14:30:12;;;;;;;4.35;3.70;;;;;;;;;;5039841;28;20029;-60
2023/04/30 14:32:38;;;;;;;8.25;4.00;;;;;;;;;;5040891;28;20024;-59
2023/04/30 14:35:05;;;;;;;4.93;4.43;;;;;;;;;;5037772;28;20105;-59
2023/04/30 14:37:32;;;;;;;5.25;4.13;;;;;;;;;;5041464;28;20032;-60
2023/04/30 14:40:00;;;;;;;4.70;4.20;;;;;;;;;;5036478;28;20037;-59
2023/04/30 14:42:26;;;;;;;5.93;4.30;;;;;;;;;;5039187;28;20048;-60